createdAt,value
2018-12-07T00:00:07.923Z,13.19
2018-12-07T00:02:53.495Z,13.20
2018-12-07T00:05:23.083Z,13.20
2018-12-07T00:07:52.115Z,13.18
2018-12-07T00:10:21.223Z,13.18
2018-12-07T00:12:50.297Z,13.17
2018-12-07T00:15:19.441Z,13.17
2018-12-07T00:17:48.645Z,13.19
2018-12-07T00:20:18.981Z,13.19
2018-12-07T00:22:48.095Z,13.19
2018-12-07T00:25:17.197Z,13.21
2018-12-07T00:27:46.336Z,13.22
2018-12-07T00:30:15.442Z,13.24
2018-12-07T00:32:44.595Z,13.28
2018-12-07T00:35:13.702Z,13.31
2018-12-07T00:37:42.805Z,13.36
2018-12-07T00:40:11.953Z,13.40
2018-12-07T00:42:42.055Z,13.44
2018-12-07T00:45:12.833Z,13.47
2018-12-07T00:47:43.129Z,13.48
2018-12-07T00:50:13.879Z,13.49
2018-12-07T00:52:42.978Z,13.50
2018-12-07T00:55:22.876Z,13.52
2018-12-07T00:57:51.936Z,13.52
2018-12-07T01:00:21.079Z,13.53
2018-12-07T01:02:50.221Z,13.53
2018-12-07T01:05:19.346Z,13.53
2018-12-07T01:07:48.493Z,13.51
2018-12-07T01:10:17.606Z,13.49
2018-12-07T01:12:46.712Z,13.49
2018-12-07T01:15:15.807Z,13.49
2018-12-07T01:17:44.893Z,13.49
2018-12-07T01:20:14.084Z,13.50
2018-12-07T01:22:43.186Z,13.49
2018-12-07T01:25:12.379Z,13.51
2018-12-07T01:27:41.885Z,13.49
2018-12-07T01:30:11.113Z,13.49
2018-12-07T01:32:40.282Z,13.48
2018-12-07T01:35:09.425Z,13.49
2018-12-07T01:37:38.523Z,13.49
2018-12-07T01:40:07.696Z,13.47
2018-12-07T01:42:36.779Z,13.46
2018-12-07T01:45:06.684Z,13.45
2018-12-07T01:47:39.972Z,13.44
2018-12-07T01:50:09.931Z,13.43
2018-12-07T01:52:39.000Z,13.41
2018-12-07T01:55:08.086Z,13.39
2018-12-07T01:57:37.185Z,13.39
2018-12-07T02:00:06.930Z,13.37
2018-12-07T02:02:36.063Z,13.36
2018-12-07T02:05:05.326Z,13.35
2018-12-07T02:07:35.422Z,13.35
2018-12-07T02:10:04.691Z,13.34
2018-12-07T02:12:33.723Z,13.33
2018-12-07T02:15:02.860Z,13.32
2018-12-07T02:17:32.044Z,13.31
2018-12-07T02:20:01.118Z,13.28
2018-12-07T02:22:32.126Z,13.25
2018-12-07T02:25:01.303Z,13.24
2018-12-07T02:27:30.442Z,13.24
2018-12-07T02:29:59.497Z,13.24
2018-12-07T02:32:28.608Z,13.24
2018-12-07T02:34:57.689Z,13.23
2018-12-07T02:37:26.970Z,13.24
2018-12-07T02:39:56.131Z,13.23
2018-12-07T02:42:25.181Z,13.22
2018-12-07T02:44:54.202Z,13.22
2018-12-07T02:47:23.196Z,13.21
2018-12-07T02:49:52.264Z,13.20
2018-12-07T02:52:21.301Z,13.22
2018-12-07T02:54:50.355Z,13.19
2018-12-07T02:57:19.415Z,13.21
2018-12-07T02:59:48.469Z,13.20
2018-12-07T03:02:17.600Z,13.19
2018-12-07T03:04:46.713Z,13.18
2018-12-07T03:07:15.753Z,13.19
2018-12-07T03:09:44.844Z,13.22
2018-12-07T03:12:13.920Z,13.23
2018-12-07T03:14:43.010Z,13.23
2018-12-07T03:17:12.153Z,13.24
2018-12-07T03:19:41.172Z,13.25
2018-12-07T03:22:10.217Z,13.25
2018-12-07T03:24:39.281Z,13.26
2018-12-07T03:27:08.323Z,13.27
2018-12-07T03:29:37.416Z,13.28
2018-12-07T03:32:06.581Z,13.28
2018-12-07T03:34:35.714Z,13.28
2018-12-07T03:37:04.816Z,13.30
2018-12-07T03:39:33.845Z,13.30
2018-12-07T03:42:02.939Z,13.32
2018-12-07T03:44:32.014Z,13.32
2018-12-07T03:47:01.661Z,13.33
2018-12-07T03:49:30.706Z,13.34
2018-12-07T03:51:59.832Z,13.34
2018-12-07T03:54:28.871Z,13.33
2018-12-07T03:56:57.891Z,13.34
2018-12-07T03:59:27.016Z,13.33
2018-12-07T04:01:56.071Z,13.32
2018-12-07T04:04:25.787Z,13.29
2018-12-07T04:06:54.904Z,13.29
2018-12-07T04:09:24.823Z,13.28
2018-12-07T04:11:53.923Z,13.29
2018-12-07T04:14:22.983Z,13.28
2018-12-07T04:16:52.037Z,13.27
2018-12-07T04:19:21.074Z,13.26
2018-12-07T04:21:50.170Z,13.26
2018-12-07T04:24:19.661Z,13.25
2018-12-07T04:26:48.737Z,13.23
2018-12-07T04:29:17.893Z,13.22
2018-12-07T04:31:46.985Z,13.23
2018-12-07T04:34:16.192Z,13.24
2018-12-07T04:36:45.249Z,13.22
2018-12-07T04:39:14.335Z,13.25
2018-12-07T04:41:43.414Z,13.25
2018-12-07T04:44:12.423Z,13.26
2018-12-07T04:46:41.460Z,13.25
2018-12-07T04:49:10.464Z,13.24
2018-12-07T04:51:39.552Z,13.24
2018-12-07T04:54:08.595Z,13.23
2018-12-07T04:56:37.629Z,13.23
2018-12-07T04:59:06.699Z,13.20
2018-12-07T05:01:35.756Z,13.19
2018-12-07T05:04:04.906Z,13.16
2018-12-07T05:06:34.035Z,13.16
2018-12-07T05:09:03.173Z,13.16
2018-12-07T05:11:32.168Z,13.14
2018-12-07T05:14:01.226Z,13.14
2018-12-07T05:16:30.259Z,13.14
2018-12-07T05:18:59.328Z,13.13
2018-12-07T05:21:28.391Z,13.14
2018-12-07T05:23:57.459Z,13.12
2018-12-07T05:26:26.605Z,13.10
2018-12-07T05:28:55.647Z,13.09
2018-12-07T05:31:24.943Z,13.09
2018-12-07T05:33:54.004Z,13.08
2018-12-07T05:36:23.038Z,13.09
2018-12-07T05:38:52.100Z,13.10
2018-12-07T05:41:21.128Z,13.09
2018-12-07T05:43:58.735Z,13.10
2018-12-07T05:46:27.785Z,13.00
2018-12-07T05:48:56.916Z,12.87
2018-12-07T05:51:26.075Z,12.75
2018-12-07T05:53:55.130Z,12.63
2018-12-07T05:56:24.195Z,12.53
2018-12-07T05:58:53.279Z,12.43
2018-12-07T06:01:22.473Z,12.38
2018-12-07T06:03:51.573Z,12.32
2018-12-07T06:06:20.692Z,12.28
2018-12-07T06:08:49.746Z,12.27
2018-12-07T06:14:20.328Z,12.24
2018-12-07T06:16:50.205Z,12.22
2018-12-07T06:19:19.339Z,12.19
2018-12-07T06:21:50.081Z,12.15
2018-12-07T06:35:50.072Z,12.12
2018-12-07T06:38:19.119Z,12.09
2018-12-07T06:40:48.217Z,12.07
2018-12-07T06:43:17.255Z,12.03
2018-12-07T06:45:46.331Z,12.02
2018-12-07T06:48:15.545Z,12.03
2018-12-07T06:50:44.615Z,12.01
2018-12-07T06:53:13.622Z,12.00
2018-12-07T06:55:42.721Z,11.99
2018-12-07T06:58:11.810Z,12.00
2018-12-07T07:00:40.989Z,11.99
2018-12-07T07:03:10.012Z,11.98
2018-12-07T07:05:39.118Z,11.98
2018-12-07T07:08:08.200Z,11.97
2018-12-07T07:10:37.412Z,11.98
2018-12-07T07:13:06.502Z,12.01
2018-12-07T07:15:35.799Z,12.04
2018-12-07T07:18:04.842Z,12.05
2018-12-07T07:20:35.886Z,12.08
2018-12-07T07:23:04.966Z,12.15
2018-12-07T07:25:34.030Z,12.18
2018-12-07T07:28:03.124Z,12.19
2018-12-07T07:30:32.248Z,12.20
2018-12-07T07:33:01.343Z,12.22
2018-12-07T07:35:30.416Z,12.25
2018-12-07T07:37:59.675Z,12.30
2018-12-07T07:40:28.906Z,12.31
2018-12-07T07:42:58.228Z,12.26
2018-12-07T07:45:27.347Z,12.20
2018-12-07T07:47:56.787Z,12.04
2018-12-07T07:50:25.915Z,11.87
2018-12-07T07:52:55.027Z,11.73
2018-12-07T07:55:24.810Z,11.63
2018-12-07T07:57:53.882Z,11.55
2018-12-07T08:00:23.084Z,11.49
2018-12-07T08:02:52.197Z,11.45
2018-12-07T08:05:21.400Z,11.41
2018-12-07T08:07:50.505Z,11.37
2018-12-07T08:10:19.587Z,11.36
2018-12-07T08:12:48.680Z,11.35
2018-12-07T08:15:17.780Z,11.34
2018-12-07T08:17:46.838Z,11.34
2018-12-07T08:20:16.807Z,11.34
2018-12-07T08:22:46.069Z,11.37
2018-12-07T08:25:15.282Z,11.41
2018-12-07T08:27:44.907Z,11.43
2018-12-07T08:30:14.056Z,11.43
2018-12-07T08:32:43.085Z,11.45
2018-12-07T08:35:12.658Z,11.42
2018-12-07T08:37:41.892Z,11.41
2018-12-07T08:40:11.170Z,11.41
2018-12-07T08:42:40.607Z,11.41
2018-12-07T08:45:12.320Z,11.42
2018-12-07T08:47:41.537Z,11.42
2018-12-07T08:50:10.758Z,11.40
2018-12-07T08:52:39.869Z,11.39
2018-12-07T08:55:09.421Z,11.38
2018-12-07T08:57:38.885Z,11.37
2018-12-07T09:00:09.985Z,11.34
2018-12-07T09:02:39.091Z,11.32
2018-12-07T09:05:08.412Z,11.33
2018-12-07T09:07:37.458Z,11.36
2018-12-07T09:10:07.103Z,11.37
2018-12-07T09:12:36.143Z,11.39
2018-12-07T09:15:06.140Z,11.42
2018-12-07T09:17:35.266Z,11.47
2018-12-07T09:20:06.160Z,11.54
2018-12-07T09:22:35.268Z,11.63
2018-12-07T09:25:04.668Z,11.72
2018-12-07T09:27:34.343Z,11.82
2018-12-07T09:30:03.967Z,11.85
2018-12-07T09:32:33.405Z,11.83
2018-12-07T09:35:03.206Z,11.76
2018-12-07T09:37:32.748Z,11.58
2018-12-07T09:40:01.794Z,11.24
2018-12-07T09:42:31.589Z,10.91
2018-12-07T09:45:00.600Z,10.65
2018-12-07T09:47:29.695Z,10.51
2018-12-07T09:49:59.040Z,10.45
2018-12-07T09:52:28.075Z,10.45
2018-12-07T09:54:57.264Z,10.49
2018-12-07T09:57:26.389Z,10.57
2018-12-07T09:59:56.092Z,10.68
2018-12-07T10:02:25.142Z,10.77
2018-12-07T10:04:54.251Z,10.80
2018-12-07T10:07:23.577Z,10.77
2018-12-07T10:09:52.661Z,10.71
2018-12-07T10:12:22.158Z,10.66
2018-12-07T10:14:51.357Z,10.63
2018-12-07T10:17:20.651Z,10.64
2018-12-07T10:19:49.789Z,10.69
2018-12-07T10:22:19.024Z,10.74
2018-12-07T10:24:48.099Z,10.78
2018-12-07T10:27:18.157Z,10.79
2018-12-07T10:29:48.071Z,10.79
2018-12-07T10:32:17.371Z,10.80
2018-12-07T10:34:46.606Z,10.81
2018-12-07T10:37:15.786Z,10.85
2018-12-07T10:39:44.980Z,10.92
2018-12-07T10:42:14.452Z,10.99
2018-12-07T10:44:44.001Z,11.08
2018-12-07T10:47:13.779Z,11.15
2018-12-07T10:49:42.978Z,11.21
2018-12-07T10:52:13.093Z,11.24
2018-12-07T10:54:42.272Z,11.28
2018-12-07T10:57:12.350Z,11.32
2018-12-07T10:59:41.383Z,11.40
2018-12-07T11:02:15.937Z,11.48
2018-12-07T11:04:50.145Z,11.58
2018-12-07T11:07:24.414Z,11.71
2018-12-07T11:09:58.738Z,11.73
2018-12-07T11:12:32.922Z,11.69
2018-12-07T11:15:07.137Z,11.67
2018-12-07T11:17:42.295Z,11.67
2018-12-07T11:20:16.562Z,11.67
2018-12-07T11:22:50.621Z,11.69
2018-12-07T11:25:27.078Z,11.71
2018-12-07T11:28:01.191Z,11.75
2018-12-07T11:30:40.245Z,11.74
2018-12-07T11:33:14.439Z,11.72
2018-12-07T11:35:43.785Z,11.68
2018-12-07T11:38:12.968Z,11.71
2018-12-07T11:40:43.854Z,11.74
2018-12-07T11:43:15.861Z,11.76
2018-12-07T11:45:46.570Z,11.77
2018-12-07T11:48:15.664Z,11.77
2018-12-07T11:50:50.204Z,11.80
2018-12-07T11:53:19.294Z,11.81
2018-12-07T11:55:49.003Z,11.78
2018-12-07T11:58:18.125Z,11.71
2018-12-07T12:00:47.248Z,11.62
2018-12-07T12:03:17.140Z,11.50
2018-12-07T12:05:46.338Z,11.41
2018-12-07T12:08:15.451Z,11.31
2018-12-07T12:10:45.212Z,11.21
2018-12-07T12:13:14.364Z,11.14
2018-12-07T12:15:43.564Z,11.09
2018-12-07T12:18:12.681Z,11.03
2018-12-07T12:20:42.636Z,10.99
2018-12-07T12:23:11.742Z,10.96
2018-12-07T12:25:41.360Z,10.98
2018-12-07T12:28:10.492Z,10.99
2018-12-07T12:30:39.650Z,11.06
2018-12-07T12:33:08.729Z,11.12
2018-12-07T12:35:37.949Z,11.12
2018-12-07T12:38:07.092Z,11.12
2018-12-07T12:40:36.207Z,11.15
2018-12-07T12:43:05.484Z,11.16
2018-12-07T12:45:34.878Z,11.22
2018-12-07T12:48:04.113Z,11.27
2018-12-07T12:50:36.260Z,11.35
2018-12-07T12:53:06.188Z,11.42
2018-12-07T12:55:36.312Z,11.46
2018-12-07T12:58:05.666Z,11.47
2018-12-07T13:00:35.070Z,11.46
2018-12-07T13:03:04.270Z,11.43
2018-12-07T13:05:33.546Z,11.39
2018-12-07T13:08:03.853Z,11.36
2018-12-07T13:10:33.763Z,11.34
2018-12-07T13:13:03.561Z,11.38
2018-12-07T13:15:32.650Z,11.43
2018-12-07T13:18:01.720Z,11.44
2018-12-07T13:20:30.841Z,11.43
2018-12-07T13:23:00.097Z,11.41
2018-12-07T13:25:29.900Z,11.37
2018-12-07T13:27:58.981Z,11.32
2018-12-07T13:30:28.354Z,11.18
2018-12-07T13:32:57.533Z,10.97
2018-12-07T13:35:26.727Z,10.83
2018-12-07T13:37:55.965Z,10.71
2018-12-07T13:40:25.155Z,10.66
2018-12-07T13:42:54.561Z,10.72
2018-12-07T13:45:23.997Z,10.75
2018-12-07T13:47:53.432Z,10.75
2018-12-07T13:50:27.684Z,10.72
2018-12-07T13:52:56.970Z,10.70
2018-12-07T13:55:26.153Z,10.69
2018-12-07T13:57:55.299Z,10.75
2018-12-07T14:00:24.670Z,10.87
2018-12-07T14:02:53.573Z,11.01
2018-12-07T14:05:23.796Z,11.20
2018-12-07T14:07:52.965Z,11.34
2018-12-07T14:10:22.126Z,11.42
2018-12-07T14:12:51.244Z,11.48
2018-12-07T14:15:20.453Z,11.45
2018-12-07T14:17:49.625Z,11.35
2018-12-07T14:20:18.865Z,11.28
2018-12-07T14:22:47.898Z,11.27
2018-12-07T14:27:50.261Z,11.21
2018-12-07T14:30:20.140Z,11.23
2018-12-07T14:32:49.268Z,11.25
2018-12-07T14:35:18.714Z,11.26
2018-12-07T14:37:48.084Z,11.26
2018-12-07T14:40:17.644Z,11.23
2018-12-07T14:42:47.350Z,11.20
2018-12-07T14:45:16.866Z,11.16
2018-12-07T14:47:47.254Z,11.12
2018-12-07T14:50:16.242Z,11.06
2018-12-07T14:52:45.660Z,11.05
2018-12-07T14:55:14.813Z,11.04
2018-12-07T14:57:44.052Z,11.01
2018-12-07T15:00:13.374Z,10.99
2018-12-07T15:02:42.577Z,11.03
2018-12-07T15:05:11.637Z,11.07
2018-12-07T15:07:40.926Z,11.07
2018-12-07T15:10:10.387Z,11.03
2018-12-07T15:12:39.811Z,10.98
2018-12-07T15:15:08.925Z,10.96
2018-12-07T15:17:38.640Z,10.92
2018-12-07T15:20:09.067Z,10.92
2018-12-07T15:22:39.606Z,10.90
2018-12-07T15:25:08.980Z,10.90
2018-12-07T15:27:38.164Z,10.91
2018-12-07T15:30:09.535Z,10.97
2018-12-07T15:32:38.762Z,10.97
2018-12-07T15:35:09.708Z,10.92
2018-12-07T15:37:39.803Z,10.83
2018-12-07T15:40:10.827Z,10.69
2018-12-07T15:42:40.308Z,10.56
2018-12-07T15:45:13.985Z,10.48
2018-12-07T15:47:43.452Z,10.43
2018-12-07T15:50:12.461Z,10.41
2018-12-07T15:52:41.832Z,10.39
2018-12-07T15:55:10.915Z,10.42
2018-12-07T15:57:40.172Z,10.45
2018-12-07T16:00:09.807Z,10.45
2018-12-07T16:02:38.977Z,10.44
2018-12-07T16:05:08.478Z,10.42
2018-12-07T16:07:38.185Z,10.41
2018-12-07T16:10:08.153Z,10.42
2018-12-07T16:12:37.328Z,10.47
2018-12-07T16:15:06.850Z,10.60
2018-12-07T16:17:35.963Z,10.71
2018-12-07T16:20:08.277Z,10.73
2018-12-07T16:22:38.182Z,10.66
2018-12-07T16:25:08.034Z,10.57
2018-12-07T16:27:37.219Z,10.49
2018-12-07T16:30:08.195Z,10.35
2018-12-07T16:32:37.725Z,10.25
2018-12-07T16:35:07.530Z,10.16
2018-12-07T16:37:36.717Z,10.07
2018-12-07T16:40:07.468Z,10.03
2018-12-07T16:42:37.306Z,9.97
2018-12-07T16:45:06.826Z,9.90
2018-12-07T16:47:35.882Z,9.88
2018-12-07T16:50:06.009Z,9.91
2018-12-07T16:52:35.164Z,9.96
2018-12-07T16:55:04.471Z,10.00
2018-12-07T16:57:33.953Z,10.05
2018-12-07T17:00:03.263Z,10.11
2018-12-07T17:02:33.061Z,10.19
2018-12-07T17:08:04.588Z,10.34
2018-12-07T17:10:33.890Z,10.40
2018-12-07T17:13:03.143Z,10.48
2018-12-07T17:15:33.730Z,10.52
2018-12-07T17:18:02.969Z,10.53
2018-12-07T17:20:32.014Z,10.52
2018-12-07T17:23:01.248Z,10.53
2018-12-07T17:25:31.524Z,10.54
2018-12-07T17:28:00.472Z,10.56
2018-12-07T17:30:29.828Z,10.53
2018-12-07T17:32:59.877Z,10.54
2018-12-07T17:35:28.905Z,10.53
2018-12-07T17:37:58.149Z,10.48
2018-12-07T17:40:27.129Z,10.36
2018-12-07T17:42:56.251Z,10.31
2018-12-07T17:45:25.522Z,10.30
2018-12-07T17:47:54.464Z,10.38
2018-12-07T17:50:23.846Z,10.44
2018-12-07T17:52:52.939Z,10.52
2018-12-07T17:55:22.309Z,10.59
2018-12-07T17:57:51.399Z,10.64
2018-12-07T18:00:21.362Z,10.71
2018-12-07T18:02:54.355Z,10.77
2018-12-07T18:05:23.844Z,10.79
2018-12-07T18:07:55.007Z,10.77
2018-12-07T18:10:23.909Z,10.79
2018-12-07T18:12:54.011Z,10.79
2018-12-07T18:15:26.638Z,10.78
2018-12-07T18:17:56.881Z,10.72
2018-12-07T18:20:26.132Z,10.69
2018-12-07T18:22:55.373Z,10.67
2018-12-07T18:25:24.506Z,10.67
2018-12-07T18:27:53.631Z,10.69
2018-12-07T18:30:22.846Z,10.68
2018-12-07T18:32:52.955Z,10.70
2018-12-07T18:35:22.122Z,10.73
2018-12-07T18:37:51.264Z,10.78
2018-12-07T18:40:20.363Z,10.78
2018-12-07T18:42:49.509Z,10.64
2018-12-07T18:45:18.914Z,10.28
2018-12-07T18:47:48.138Z,9.98
2018-12-07T18:50:17.293Z,9.75
2018-12-07T18:52:46.412Z,9.60
2018-12-07T18:55:15.483Z,9.53
2018-12-07T18:57:45.086Z,9.58
2018-12-07T19:00:14.249Z,9.64
2018-12-07T19:02:43.654Z,9.77
2018-12-07T19:05:12.897Z,9.95
2018-12-07T19:07:42.812Z,10.12
2018-12-07T19:10:12.202Z,10.29
2018-12-07T19:12:42.596Z,10.39
2018-12-07T19:15:12.419Z,10.43
2018-12-07T19:17:42.045Z,10.50
2018-12-07T19:20:12.016Z,10.56
2018-12-07T19:22:41.304Z,10.62
2018-12-07T19:25:11.986Z,10.64
2018-12-07T19:27:41.276Z,10.68
2018-12-07T19:30:14.723Z,10.72
2018-12-07T19:32:43.029Z,10.77
2018-12-07T19:35:22.066Z,10.79
2018-12-07T19:37:51.941Z,10.83
2018-12-07T19:40:21.604Z,10.82
2018-12-07T19:42:50.873Z,10.83
2018-12-07T19:45:25.254Z,10.86
2018-12-07T19:47:58.764Z,10.80
2018-12-07T19:50:32.424Z,10.73
2018-12-07T19:53:01.551Z,10.68
2018-12-07T19:55:30.696Z,10.67
2018-12-07T19:57:59.920Z,10.74
2018-12-07T20:00:33.590Z,10.75
2018-12-07T20:03:02.975Z,10.69
2018-12-07T20:05:34.967Z,10.58
2018-12-07T20:08:05.346Z,10.43
2018-12-07T20:10:36.628Z,10.31
2018-12-07T20:13:05.528Z,10.24
2018-12-07T20:15:34.643Z,10.24
2018-12-07T20:18:03.943Z,10.29
2018-12-07T20:20:34.136Z,10.32
2018-12-07T20:23:03.809Z,10.37
2018-12-07T20:25:32.943Z,10.41
2018-12-07T20:28:02.225Z,10.48
2018-12-07T20:30:31.555Z,10.63
2018-12-07T20:33:00.833Z,10.71
2018-12-07T20:35:30.668Z,10.79
2018-12-07T20:37:59.981Z,10.82
2018-12-07T20:40:29.414Z,10.86
2018-12-07T20:43:04.510Z,10.89
2018-12-07T20:45:33.967Z,10.90
2018-12-07T20:48:04.666Z,10.92
2018-12-07T20:50:34.918Z,10.94
2018-12-07T20:53:04.088Z,10.92
2018-12-07T20:55:33.596Z,10.93
2018-12-07T20:58:04.049Z,10.99
2018-12-07T21:00:36.555Z,10.96
2018-12-07T21:03:07.561Z,10.82
2018-12-07T21:06:11.450Z,10.76
2018-12-07T21:09:46.954Z,10.77
2018-12-07T21:13:37.834Z,10.80
2018-12-07T21:19:34.045Z,10.85
2018-12-07T21:22:03.034Z,10.88
2018-12-07T21:24:33.695Z,10.88
2018-12-07T21:27:02.888Z,10.90
2018-12-07T21:29:34.309Z,10.94
2018-12-07T21:32:06.916Z,10.95
2018-12-07T21:34:44.919Z,10.95
2018-12-07T21:37:15.399Z,10.96
2018-12-07T21:39:49.454Z,10.96
2018-12-07T21:42:18.918Z,10.97
2018-12-07T21:44:48.279Z,10.98
2018-12-07T21:48:26.402Z,11.02
2018-12-07T21:51:22.575Z,11.03
2018-12-07T21:53:52.607Z,11.01
2018-12-07T21:56:24.266Z,11.02
2018-12-07T21:58:53.542Z,11.02
2018-12-07T22:01:23.786Z,11.04
2018-12-07T22:03:53.167Z,11.05
2018-12-07T22:06:22.760Z,11.02
2018-12-07T22:08:52.079Z,11.02
2018-12-07T22:11:21.666Z,11.03
2018-12-07T22:13:50.909Z,11.04
2018-12-07T22:16:20.996Z,11.04
2018-12-07T22:18:56.935Z,11.04
2018-12-07T22:21:27.969Z,11.05
2018-12-07T22:23:57.339Z,11.06
2018-12-07T22:26:28.476Z,11.06
2018-12-07T22:28:57.990Z,11.08
2018-12-07T22:31:27.855Z,11.09
2018-12-07T22:33:57.072Z,11.09
2018-12-07T22:36:26.670Z,11.10
2018-12-07T22:38:56.202Z,11.13
2018-12-07T22:41:25.516Z,11.14
2018-12-07T22:44:00.728Z,11.11
2018-12-07T22:46:31.904Z,11.04
2018-12-07T22:49:02.226Z,11.00
2018-12-07T22:51:33.674Z,10.95
2018-12-07T22:54:05.221Z,10.91
2018-12-07T22:56:35.040Z,10.91
2018-12-07T22:59:06.142Z,10.91
2018-12-07T23:01:37.806Z,10.94
2018-12-07T23:04:07.084Z,10.97
2018-12-07T23:06:36.440Z,11.03
2018-12-07T23:09:08.130Z,11.08
2018-12-07T23:11:38.171Z,11.13
2018-12-07T23:14:07.371Z,11.10
2018-12-07T23:16:36.976Z,11.09
2018-12-07T23:19:26.915Z,11.07
2018-12-07T23:22:13.321Z,11.09
2018-12-07T23:24:58.726Z,11.11
2018-12-07T23:27:47.615Z,11.10
2018-12-07T23:30:33.814Z,11.10
2018-12-07T23:33:19.645Z,11.11
2018-12-07T23:35:48.995Z,11.15
2018-12-07T23:38:38.184Z,11.19
2018-12-07T23:41:22.521Z,11.20
2018-12-07T23:44:09.173Z,11.19
2018-12-07T23:46:38.959Z,11.15
2018-12-07T23:49:26.146Z,11.11
2018-12-07T23:52:12.728Z,11.06
2018-12-07T23:57:57.218Z,11.05
